createdAt,value
2023-03-13T00:00:07.396Z,0.25
2023-03-13T00:10:14.293Z,0.10
2023-03-13T00:20:20.130Z,-0.07
2023-03-13T00:30:25.837Z,-0.19
2023-03-13T00:40:31.922Z,-0.21
2023-03-13T00:50:37.607Z,-0.16
2023-03-13T01:00:43.127Z,-0.12
2023-03-13T01:10:48.759Z,-0.10
2023-03-13T01:20:55.548Z,-0.06
2023-03-13T01:31:01.782Z,-0.05
2023-03-13T01:41:09.033Z,-0.05
2023-03-13T01:51:19.210Z,-0.04
2023-03-13T02:01:26.846Z,-0.03
2023-03-13T02:11:40.926Z,0.01
2023-03-13T02:21:56.624Z,0.10
2023-03-13T02:32:02.288Z,0.20
2023-03-13T02:42:08.861Z,0.29
2023-03-13T02:52:19.031Z,0.38
2023-03-13T03:02:25.167Z,0.48
2023-03-13T03:12:30.793Z,0.61
2023-03-13T03:22:38.588Z,0.73
2023-03-13T03:32:44.532Z,0.86
2023-03-13T03:42:50.494Z,1.03
2023-03-13T03:52:56.520Z,1.18
2023-03-13T04:03:02.389Z,1.32
2023-03-13T04:13:08.251Z,1.45
2023-03-13T04:23:13.899Z,1.56
2023-03-13T04:33:19.629Z,1.70
2023-03-13T04:43:25.495Z,1.87
2023-03-13T04:53:31.098Z,1.97
2023-03-13T05:03:36.651Z,2.02
2023-03-13T05:13:42.552Z,2.08
2023-03-13T05:23:48.220Z,2.18
2023-03-13T05:33:54.253Z,2.34
2023-03-13T05:43:59.858Z,2.51
2023-03-13T05:54:05.821Z,2.71
2023-03-13T06:04:11.770Z,2.86
2023-03-13T06:14:17.561Z,3.12
2023-03-13T06:24:23.284Z,3.50
2023-03-13T06:34:29.003Z,3.97
2023-03-13T06:44:34.740Z,4.42
2023-03-13T06:54:40.578Z,4.98
2023-03-13T07:04:46.941Z,5.53
2023-03-13T07:14:52.559Z,5.82
2023-03-13T07:24:58.241Z,5.73
2023-03-13T07:35:04.789Z,5.81
2023-03-13T07:45:12.140Z,6.05
2023-03-13T07:55:18.054Z,7.29
2023-03-13T08:05:23.968Z,7.77
2023-03-13T08:15:29.982Z,9.22
2023-03-13T08:25:35.959Z,10.43
2023-03-13T08:35:41.622Z,12.54
2023-03-13T08:45:47.269Z,12.86
2023-03-13T08:55:56.795Z,12.80
2023-03-13T09:06:03.341Z,12.12
2023-03-13T09:16:11.292Z,11.78
2023-03-13T09:26:18.115Z,11.46
2023-03-13T09:36:25.026Z,11.47
2023-03-13T09:46:37.629Z,11.80
2023-03-13T09:56:46.361Z,11.89
2023-03-13T10:06:52.202Z,11.90
2023-03-13T10:17:07.495Z,12.03
2023-03-13T10:27:15.393Z,12.30
2023-03-13T10:37:24.253Z,12.03
2023-03-13T10:47:33.783Z,11.71
2023-03-13T10:57:44.465Z,11.60
2023-03-13T11:07:50.400Z,11.58
2023-03-13T11:18:04.199Z,11.47
2023-03-13T11:28:22.577Z,11.28
2023-03-13T11:38:33.921Z,11.00
2023-03-13T11:48:51.697Z,10.71
2023-03-13T11:59:17.725Z,10.45
2023-03-13T12:09:31.691Z,10.21
2023-03-13T12:19:43.920Z,10.35
2023-03-13T12:29:54.601Z,10.35
2023-03-13T12:40:07.232Z,10.18
2023-03-13T12:50:25.218Z,9.87
2023-03-13T13:00:34.249Z,9.69
2023-03-13T13:10:42.112Z,9.63
2023-03-13T13:21:11.983Z,9.64
2023-03-13T13:31:57.037Z,9.57
2023-03-13T13:42:23.020Z,9.54
2023-03-13T13:52:39.787Z,9.37
2023-03-13T14:02:53.273Z,9.29
2023-03-13T14:13:00.862Z,9.30
2023-03-13T14:23:08.668Z,9.33
2023-03-13T14:33:14.746Z,9.33
2023-03-13T14:43:32.456Z,9.33
2023-03-13T14:53:38.330Z,9.34
2023-03-13T15:03:47.569Z,9.28
2023-03-13T15:13:53.271Z,9.26
2023-03-13T15:24:02.751Z,9.28
2023-03-13T15:34:13.740Z,9.29
2023-03-13T15:44:19.375Z,9.27
2023-03-13T15:54:26.477Z,9.18
2023-03-13T16:04:33.118Z,9.11
2023-03-13T16:14:40.257Z,9.05
2023-03-13T16:24:45.923Z,9.00
2023-03-13T16:34:51.757Z,9.00
2023-03-13T16:44:57.343Z,9.04
2023-03-13T16:55:02.989Z,9.02
2023-03-13T17:05:09.483Z,9.07
2023-03-13T17:15:15.629Z,9.09
2023-03-13T17:25:21.648Z,9.07
2023-03-13T17:35:27.297Z,9.08
2023-03-13T17:45:36.909Z,9.06
2023-03-13T17:55:42.621Z,9.06
2023-03-13T18:05:48.756Z,9.08
2023-03-13T18:15:57.302Z,9.09
2023-03-13T18:26:03.109Z,9.09
2023-03-13T18:36:18.624Z,9.06
2023-03-13T18:46:27.953Z,9.04
2023-03-13T18:56:34.588Z,9.01
2023-03-13T19:06:40.544Z,8.94
2023-03-13T19:16:50.280Z,8.86
2023-03-13T19:26:59.294Z,8.79
2023-03-13T19:37:04.958Z,8.78
2023-03-13T19:47:16.543Z,8.78
2023-03-13T19:57:22.732Z,8.79
2023-03-13T20:07:28.938Z,8.81
2023-03-13T20:17:34.887Z,8.83
2023-03-13T20:27:40.729Z,8.87
2023-03-13T20:37:46.461Z,8.93
2023-03-13T20:47:55.078Z,9.00
2023-03-13T20:58:01.204Z,8.94
2023-03-13T21:08:07.627Z,8.90
2023-03-13T21:18:13.628Z,8.73
2023-03-13T21:28:19.230Z,8.55
2023-03-13T21:38:25.038Z,8.50
2023-03-13T21:48:30.912Z,8.43
2023-03-13T21:58:36.858Z,8.21
2023-03-13T22:08:42.681Z,8.17
2023-03-13T22:18:48.559Z,8.21
2023-03-13T22:28:54.440Z,8.17
2023-03-13T22:39:00.275Z,8.19
2023-03-13T22:49:05.991Z,8.26
2023-03-13T22:59:11.615Z,8.43
2023-03-13T23:09:17.599Z,8.48
2023-03-13T23:19:23.440Z,8.51
2023-03-13T23:29:29.189Z,8.45
2023-03-13T23:39:35.013Z,8.49
2023-03-13T23:49:41.148Z,8.47
2023-03-13T23:59:46.971Z,8.43
